Time;durP1;ratioP1;P1;durP2;ratioP2;P2;SDS_P1;SDS_P2;PMS_P1;PMS_P2;Temp;Humidity;BMP_temperature;BMP_pressure;BME280_temperature;BME280_humidity;BME280_pressure;Samples;Min_cycle;Max_cycle;Signal;HPM_P1;HPM_P2
2023/10/26 00:00:28;;;;;;;;;4.67;3.00;;;;;12.81;80.92;99348.88;5037987;28;45359;-41
2023/10/26 00:02:53;;;;;;;;;6.33;6.33;;;;;13.09;81.00;99398.72;5037819;28;46041;-42
2023/10/26 00:05:19;;;;;;;;;9.33;7.67;;;;;13.07;81.49;99401.59;5019383;28;45317;-41
2023/10/26 00:07:44;;;;;;;;;11.67;9.00;;;;;13.01;80.78;99377.53;5037940;28;45666;-41
2023/10/26 00:10:10;;;;;;;;;7.00;7.00;;;;;13.09;81.35;99386.19;5038111;28;45462;-41
2023/10/26 00:12:35;;;;;;;;;6.00;5.00;;;;;13.03;81.29;99384.31;5037226;28;46131;-39
2023/10/26 00:15:01;;;;;;;;;7.00;4.00;;;;;13.04;81.58;99388.63;5037602;28;45279;-41
2023/10/26 00:17:26;;;;;;;;;9.00;6.67;;;;;13.05;80.80;99384.13;5037430;28;45855;-40
2023/10/26 00:19:52;;;;;;;;;7.67;6.00;;;;;13.06;80.73;99381.28;5038046;28;45369;-41
2023/10/26 00:22:18;;;;;;;;;7.33;4.33;;;;;13.09;81.08;99380.03;5037646;28;47293;-42
2023/10/26 00:24:44;;;;;;;;;8.00;5.00;;;;;13.08;80.80;99367.72;5019703;28;45414;-40
2023/10/26 00:27:09;;;;;;;;;7.00;7.00;;;;;13.05;80.92;99371.59;5019516;28;45971;-39
2023/10/26 00:29:34;;;;;;;;;3.67;3.67;;;;;13.02;81.01;99363.13;5037674;28;45412;-41
2023/10/26 00:32:00;;;;;;;;;9.00;6.67;;;;;12.96;80.87;99354.09;5019600;28;46008;-42
2023/10/26 00:34:25;;;;;;;;;5.67;4.00;;;;;13.01;81.47;99356.97;5037230;28;45352;-37
2023/10/26 00:36:50;;;;;;;;;5.00;4.00;;;;;12.98;81.17;99350.22;5037566;28;45758;-40
2023/10/26 00:39:16;;;;;;;;;8.33;7.00;;;;;12.91;81.96;99352.00;5037550;28;45361;-41
2023/10/26 00:41:41;;;;;;;;;4.00;4.00;;;;;12.87;82.35;99347.25;5037129;28;46646;-40
2023/10/26 00:44:06;;;;;;;;;7.33;6.33;;;;;12.87;82.27;99342.75;5019424;28;45435;-40
2023/10/26 00:46:34;;;;;;;;;7.00;6.00;;;;;12.90;82.10;99344.22;5037083;28;45403;-39
2023/10/26 00:49:00;;;;;;;;;6.33;5.00;;;;;12.88;82.45;99339.03;5037443;28;45458;-40
2023/10/26 00:51:25;;;;;;;;;5.67;5.67;;;;;12.92;82.27;99342.16;5035560;28;45332;-41
2023/10/26 00:53:51;;;;;;;;;9.00;9.00;;;;;12.94;82.41;99342.78;5036979;28;45502;-43
2023/10/26 00:56:19;;;;;;;;;8.33;6.67;;;;;12.91;81.72;99343.19;5037241;28;45399;-39
2023/10/26 00:58:45;;;;;;;;;5.00;5.00;;;;;12.88;81.73;99338.22;5036676;28;45485;-42
2023/10/26 01:01:11;;;;;;;;;11.33;7.67;;;;;12.92;81.55;99350.16;5036413;28;45438;-41
2023/10/26 01:03:38;;;;;;;;;5.33;5.33;;;;;12.87;81.92;99339.25;5036833;28;45648;-40
2023/10/26 01:06:04;;;;;;;;;7.33;7.33;;;;;12.91;81.93;99343.19;5036878;28;45467;-41
2023/10/26 01:08:30;;;;;;;;;8.00;8.00;;;;;12.92;81.74;99353.66;5037098;28;45358;-40
2023/10/26 01:10:57;;;;;;;;;6.00;4.67;;;;;12.89;81.72;99348.72;5036814;28;47314;-41
2023/10/26 01:13:23;;;;;;;;;9.67;7.00;;;;;12.89;82.26;99331.84;5036426;28;45433;-40
2023/10/26 01:15:49;;;;;;;;;11.33;5.00;;;;;12.89;82.56;99332.72;5037002;28;45414;-41
2023/10/26 01:18:15;;;;;;;;;6.67;6.67;;;;;12.95;83.12;99339.09;5037035;28;45457;-41
2023/10/26 01:20:42;;;;;;;;;6.67;6.00;;;;;12.89;83.51;99337.19;5036376;28;46337;-40
2023/10/26 01:23:07;;;;;;;;;8.67;7.00;;;;;12.87;83.54;99339.25;5036632;28;45435;-40
2023/10/26 01:25:33;;;;;;;;;6.67;4.00;;;;;12.87;83.55;99332.06;5036623;28;45305;-41
2023/10/26 01:27:58;;;;;;;;;6.00;5.33;;;;;12.87;83.70;99336.59;5036936;28;45523;-41
2023/10/26 01:30:24;;;;;;;;;6.33;4.00;;;;;12.83;83.68;99330.81;5036467;28;46182;-41
2023/10/26 01:32:49;;;;;;;;;7.33;6.33;;;;;12.82;84.35;99325.69;5036381;28;45475;-42
2023/10/26 01:35:14;;;;;;;;;5.67;5.00;;;;;12.80;85.11;99320.50;5036637;28;45282;-41
2023/10/26 01:37:40;;;;;;;;;8.00;4.00;;;;;12.78;85.35;99322.56;5035116;28;45499;-39
2023/10/26 01:40:07;;;;;;;;;4.00;4.00;;;;;12.78;86.35;99324.41;5036165;28;45599;-41
2023/10/26 01:42:33;;;;;;;;;4.67;4.67;;;;;12.76;86.87;99323.78;5036202;28;45403;-41
2023/10/26 01:44:58;;;;;;;;;3.33;3.33;;;;;12.72;86.75;99318.00;5036461;28;45512;-41
2023/10/26 01:47:23;;;;;;;;;8.67;7.00;;;;;12.75;86.61;99317.63;5018655;28;45447;-41
2023/10/26 01:49:49;;;;;;;;;7.00;4.00;;;;;12.71;87.52;99306.50;5036012;28;46061;-41
2023/10/26 01:52:14;;;;;;;;;6.00;6.00;;;;;12.72;87.71;99307.31;5036098;28;45357;-39
2023/10/26 01:54:39;;;;;;;;;5.00;4.00;;;;;12.74;87.92;99300.78;5035891;28;45432;-41
2023/10/26 01:57:05;;;;;;;;;6.00;6.00;;;;;12.73;88.00;99301.00;5036199;28;45379;-40
2023/10/26 01:59:30;;;;;;;;;6.67;6.33;;;;;12.71;88.36;99303.00;5035932;28;46259;-40
2023/10/26 02:01:55;;;;;;;;;6.00;6.00;;;;;12.71;88.86;99295.84;5036319;28;45379;-41
2023/10/26 02:04:20;;;;;;;;;4.00;4.00;;;;;12.76;89.16;99297.09;5032657;28;45466;-51
2023/10/26 02:06:46;;;;;;;;;9.67;4.67;;;;;12.72;89.60;99289.50;5016203;28;45336;-40
2023/10/26 02:09:11;;;;;;;;;7.00;4.67;;;;;12.76;89.19;99289.09;5015495;28;54520;-41
2023/10/26 02:11:36;;;;;;;;;7.67;4.00;;;;;12.75;89.49;99282.94;5014628;28;45351;-41
2023/10/26 02:14:02;;;;;;;;;6.33;5.33;;;;;12.78;90.31;99287.06;5015377;28;46191;-41
2023/10/26 02:16:27;;;;;;;;;7.00;4.00;;;;;12.73;91.34;99277.78;5015222;28;45412;-41
2023/10/26 02:18:52;;;;;;;;;7.67;5.00;;;;;12.60;91.59;99261.72;5015668;28;46278;-40
2023/10/26 02:21:18;;;;;;;;;5.00;5.00;;;;;12.71;91.47;99265.66;5015658;28;45171;-41
2023/10/26 02:23:44;;;;;;;;;4.00;4.00;;;;;12.71;90.96;99261.16;5016112;28;45575;-41
2023/10/26 02:26:09;;;;;;;;;5.67;5.00;;;;;12.70;92.83;99258.69;5015967;28;45413;-42
2023/10/26 02:28:35;;;;;;;;;6.00;4.00;;;;;12.71;92.33;99257.66;5015478;28;46515;-42
2023/10/26 02:31:00;;;;;;;;;6.00;6.00;;;;;12.73;91.85;99258.31;5015728;28;45275;-41
2023/10/26 02:33:26;;;;;;;;;3.00;3.00;;;;;12.71;92.28;99255.81;5015669;28;45227;-40
2023/10/26 02:35:51;;;;;;;;;5.00;5.00;;;;;12.73;92.68;99253.78;5016145;28;45264;-41
2023/10/26 02:38:17;;;;;;;;;3.00;3.00;;;;;12.69;93.49;99247.19;5015235;28;47192;-41
2023/10/26 02:40:42;;;;;;;;;4.00;4.00;;;;;12.71;92.90;99250.47;5015465;28;45376;-38
2023/10/26 02:43:08;;;;;;;;;7.00;6.00;;;;;12.70;93.67;99237.34;5015385;28;45465;-41
2023/10/26 02:45:34;;;;;;;;;3.00;2.67;;;;;12.73;94.02;99236.97;4997700;28;45456;-41
2023/10/26 02:48:00;;;;;;;;;3.33;3.00;;;;;12.74;94.00;99233.25;5015183;28;46158;-42
2023/10/26 02:50:26;;;;;;;;;6.00;4.00;;;;;12.72;93.95;99229.94;5015191;28;45364;-40
2023/10/26 02:52:51;;;;;;;;;2.00;2.00;;;;;12.73;93.60;99224.44;5015639;28;45398;-40
2023/10/26 02:55:16;;;;;;;;;5.00;5.00;;;;;12.79;95.02;99230.00;5014829;28;45270;-40
2023/10/26 02:57:42;;;;;;;;;6.33;4.00;;;;;12.70;95.08;99200.81;5015114;28;52033;-43
2023/10/26 03:00:07;;;;;;;;;2.67;2.67;;;;;12.70;94.03;99206.16;5015141;28;45326;-38
2023/10/26 03:02:33;;;;;;;;;3.00;3.00;;;;;12.83;94.90;99207.22;5015240;28;45254;-41
2023/10/26 03:04:58;;;;;;;;;3.00;3.00;;;;;12.84;96.03;99207.03;5015435;28;45421;-41
2023/10/26 03:07:24;;;;;;;;;3.00;3.00;;;;;12.73;95.26;99173.75;5015263;28;45807;-43
2023/10/26 03:09:50;;;;;;;;;3.00;3.00;;;;;12.82;96.09;99192.25;5015532;28;45380;-42
2023/10/26 03:12:16;;;;;;;;;3.00;3.00;;;;;12.82;97.05;99186.91;5015230;28;45263;-39
2023/10/26 03:14:41;;;;;;;;;3.33;3.33;;;;;12.80;97.92;99184.41;5015138;28;45447;-43
2023/10/26 03:17:07;;;;;;;;;6.00;3.00;;;;;12.81;97.46;99182.56;5014892;28;45402;-46
2023/10/26 03:19:32;;;;;;;;;4.00;4.00;;;;;12.82;97.77;99184.25;5015005;28;45532;-40
2023/10/26 03:21:58;;;;;;;;;9.00;3.33;;;;;12.80;98.15;99170.25;5015117;28;45411;-42
2023/10/26 03:24:23;;;;;;;;;8.00;5.00;;;;;12.80;99.06;99154.25;5018735;28;45330;-41
2023/10/26 03:26:49;;;;;;;;;9.33;7.00;;;;;12.81;99.66;99169.22;5018400;28;46127;-41
2023/10/26 03:29:14;;;;;;;;;9.00;8.00;;;;;12.82;99.77;99165.56;5018247;28;45278;-45
2023/10/26 03:31:41;;;;;;;;;7.33;6.00;;;;;12.84;98.56;99158.16;5018313;28;45353;-40
2023/10/26 03:34:07;;;;;;;;;8.33;7.00;;;;;12.84;99.25;99160.84;5018581;28;45456;-41
2023/10/26 03:36:32;;;;;;;;;9.00;6.00;;;;;12.90;98.41;99152.88;5018401;28;46307;-42
2023/10/26 03:38:57;;;;;;;;;7.00;6.67;;;;;12.90;99.58;99149.38;5017771;28;45343;-45
2023/10/26 03:41:23;;;;;;;;;4.00;4.00;;;;;12.90;99.75;99150.19;5018372;28;45349;-40
2023/10/26 03:43:49;;;;;;;;;6.67;6.00;;;;;12.88;99.54;99152.22;5018381;28;45484;-43
2023/10/26 03:46:14;;;;;;;;;7.00;6.00;;;;;12.78;99.08;99140.31;5017935;28;46194;-42
2023/10/26 03:48:40;;;;;;;;;11.33;6.67;;;;;12.88;99.78;99151.41;5018215;28;45305;-41
2023/10/26 03:51:05;;;;;;;;;7.33;4.00;;;;;12.91;99.83;99162.50;5018059;28;45392;-41
2023/10/26 03:53:31;;;;;;;;;5.00;5.00;;;;;12.94;99.73;99163.97;5018161;28;45424;-43
2023/10/26 03:55:56;;;;;;;;;10.00;4.67;;;;;12.96;99.73;99160.06;5016716;28;45690;-43
2023/10/26 03:58:22;;;;;;;;;5.00;5.00;;;;;12.98;99.53;99160.69;5017906;28;45511;-40
2023/10/26 04:00:49;;;;;;;;;5.67;5.67;;;;;13.00;99.55;99155.13;5017890;28;45383;-41
2023/10/26 04:03:14;;;;;;;;;6.00;4.00;;;;;12.95;100.00;99144.25;5017820;28;45301;-43
2023/10/26 04:05:40;;;;;;;;;5.33;5.33;;;;;13.02;100.00;99153.09;5031461;28;46089;-42
2023/10/26 04:08:07;;;;;;;;;8.00;6.00;;;;;13.04;99.96;99158.25;5037604;28;45395;-43
2023/10/26 04:10:34;;;;;;;;;4.67;4.33;;;;;13.07;99.64;99149.84;5037681;28;45372;-42
2023/10/26 04:12:59;;;;;;;;;4.67;3.00;;;;;12.99;100.00;99130.28;5037503;28;45348;-39
2023/10/26 04:15:24;;;;;;;;;4.00;4.00;;;;;13.01;100.00;99134.59;5037114;28;46428;-42
2023/10/26 04:17:50;;;;;;;;;3.00;3.00;;;;;13.02;100.00;99146.91;5037645;28;45356;-44
2023/10/26 04:20:15;;;;;;;;;2.67;2.67;;;;;13.00;100.00;99139.13;5037460;28;45339;-44
2023/10/26 04:22:40;;;;;;;;;4.67;4.67;;;;;13.02;100.00;99144.25;5037765;28;45353;-42
2023/10/26 04:25:06;;;;;;;;;5.67;3.00;;;;;12.94;100.00;99119.41;5037106;28;46565;-38
2023/10/26 04:27:35;;;;;;;;;6.00;3.67;;;;;13.05;100.00;99131.31;5036740;28;45561;-42
2023/10/26 04:30:01;;;;;;;;;3.67;3.00;;;;;13.03;100.00;99138.72;5037326;28;45365;-44
2023/10/26 04:32:26;;;;;;;;;4.00;4.00;;;;;13.01;100.00;99132.75;5037396;28;45383;-44
2023/10/26 04:34:53;;;;;;;;;3.00;3.00;;;;;12.98;100.00;99120.66;5036172;28;45381;-42
2023/10/26 04:37:19;;;;;;;;;4.00;4.00;;;;;13.02;100.00;99123.75;5037073;28;45389;-43
2023/10/26 04:39:44;;;;;;;;;5.00;5.00;;;;;13.02;100.00;99128.25;5037430;28;45266;-43
2023/10/26 04:42:11;;;;;;;;;4.33;4.33;;;;;12.97;100.00;99110.97;5037295;28;45361;-42
2023/10/26 04:44:37;;;;;;;;;5.00;4.00;;;;;12.88;100.00;99098.03;5036799;28;46372;-44
2023/10/26 04:47:02;;;;;;;;;4.33;4.00;;;;;12.99;100.00;99113.47;5036796;28;45296;-42
2023/10/26 04:49:28;;;;;;;;;4.00;4.00;;;;;13.00;100.00;99109.75;5037002;28;45443;-42
2023/10/26 04:51:53;;;;;;;;;8.00;5.00;;;;;13.02;100.00;99112.22;5037114;28;45300;-42
2023/10/26 04:54:18;;;;;;;;;4.00;4.00;;;;;12.99;100.00;99097.44;5036740;28;46405;-43
2023/10/26 04:56:44;;;;;;;;;5.33;5.33;;;;;12.97;100.00;99094.97;5036810;28;45356;-42
2023/10/26 04:59:09;;;;;;;;;5.67;5.67;;;;;13.01;100.00;99092.72;5036168;28;45459;-41
2023/10/26 05:01:35;;;;;;;;;4.67;4.67;;;;;13.03;100.00;99100.53;5036939;28;45401;-42
2023/10/26 05:04:00;;;;;;;;;6.67;6.67;;;;;13.04;100.00;99111.00;5035883;28;53571;-42
2023/10/26 05:06:25;;;;;;;;;7.00;4.33;;;;;13.08;100.00;99103.41;5016659;28;45435;-42
2023/10/26 05:08:51;;;;;;;;;11.00;7.00;;;;;13.08;100.00;99093.56;5016897;28;45457;-43
2023/10/26 05:11:16;;;;;;;;;5.00;4.00;;;;;13.15;100.00;99085.56;5016662;28;45294;-43
2023/10/26 05:13:41;;;;;;;;;8.67;5.00;;;;;13.18;100.00;99080.63;5016359;28;46334;-43
2023/10/26 05:16:07;;;;;;;;;7.67;7.00;;;;;13.19;100.00;99082.28;5016408;28;45380;-45
2023/10/26 05:18:32;;;;;;;;;9.00;7.00;;;;;13.24;100.00;99073.69;5015905;28;45422;-42
2023/10/26 05:20:59;;;;;;;;;8.67;6.33;;;;;13.26;100.00;99058.28;5016736;28;45429;-40
2023/10/26 05:23:25;;;;;;;;;6.33;5.00;;;;;13.32;100.00;99064.66;5015585;28;46509;-40
2023/10/26 05:25:50;;;;;;;;;4.33;3.67;;;;;13.37;100.00;99067.53;5016556;28;45381;-47
2023/10/26 05:28:16;;;;;;;;;8.00;4.33;;;;;13.41;100.00;99063.41;5016385;28;45322;-46
2023/10/26 05:30:41;;;;;;;;;8.67;7.33;;;;;13.44;100.00;99066.50;5016809;28;45329;-45
2023/10/26 05:33:07;;;;;;;;;6.33;4.67;;;;;13.43;100.00;99048.00;4998292;28;46064;-46
2023/10/26 05:35:32;;;;;;;;;6.33;6.33;;;;;13.51;100.00;99061.16;5016584;28;45286;-45
2023/10/26 05:37:58;;;;;;;;;6.67;5.33;;;;;13.53;100.00;99045.75;5016810;28;45426;-45
2023/10/26 05:40:23;;;;;;;;;8.00;6.33;;;;;13.59;100.00;99052.09;5017020;28;45341;-46
2023/10/26 05:42:49;;;;;;;;;5.67;5.00;;;;;13.62;100.00;99057.03;5016349;28;45918;-44
2023/10/26 05:45:14;;;;;;;;;10.33;5.33;;;;;13.66;100.00;99051.06;5015848;28;45333;-46
2023/10/26 05:47:40;;;;;;;;;4.00;3.00;;;;;13.69;100.00;99039.97;4998170;28;45849;-43
2023/10/26 05:50:06;;;;;;;;;6.33;6.00;;;;;13.72;100.00;99049.41;5016090;28;45526;-44
2023/10/26 05:52:31;;;;;;;;;8.00;6.33;;;;;13.76;100.00;99060.50;5016294;28;45404;-45
2023/10/26 05:54:56;;;;;;;;;4.00;4.00;;;;;13.80;100.00;99061.72;5015650;28;45416;-43
2023/10/26 05:57:22;;;;;;;;;7.00;5.33;;;;;13.82;100.00;99062.31;5015966;28;45405;-46
2023/10/26 05:59:47;;;;;;;;;6.67;6.67;;;;;13.86;100.00;99064.41;5016038;28;45754;-45
2023/10/26 06:02:13;;;;;;;;;4.00;4.00;;;;;13.88;100.00;99059.66;5015788;28;46027;-46
2023/10/26 06:04:38;;;;;;;;;1.67;1.67;;;;;13.89;100.00;99055.94;5015339;28;45365;-46
2023/10/26 06:07:03;;;;;;;;;2.67;2.00;;;;;13.91;100.00;99066.44;5015894;28;45344;-45
2023/10/26 06:09:29;;;;;;;;;4.00;2.33;;;;;13.94;100.00;99068.69;5016097;28;45329;-45
2023/10/26 06:11:54;;;;;;;;;3.00;3.00;;;;;13.95;100.00;99056.97;5015519;28;47028;-44
2023/10/26 06:14:20;;;;;;;;;3.00;3.00;;;;;13.98;100.00;99072.56;5014954;28;45191;-46
2023/10/26 06:16:45;;;;;;;;;2.67;2.67;;;;;13.94;100.00;99087.38;5015116;28;45516;-43
2023/10/26 06:19:11;;;;;;;;;2.00;2.00;;;;;14.02;100.00;99103.22;5015958;28;45720;-45
2023/10/26 06:21:38;;;;;;;;;1.67;1.00;;;;;14.03;100.00;99112.91;5015555;28;46928;-46
2023/10/26 06:24:05;;;;;;;;;11.00;5.33;;;;;14.04;100.00;99095.00;5015791;28;45400;-41
2023/10/26 06:26:30;;;;;;;;;1.00;1.00;;;;;14.07;100.00;99103.41;5015919;28;45400;-41
2023/10/26 06:28:56;;;;;;;;;1.00;0.00;;;;;14.09;100.00;99097.88;5015928;28;45449;-41
2023/10/26 06:31:21;;;;;;;;;1.00;1.00;;;;;14.10;98.41;99103.00;5015835;28;46310;-41
2023/10/26 06:33:47;;;;;;;;;1.00;1.00;;;;;14.11;98.07;99101.94;5015679;28;45450;-41
2023/10/26 06:36:12;;;;;;;;;0.00;0.00;;;;;14.11;96.33;99093.09;5016105;28;45470;-41
2023/10/26 06:38:38;;;;;;;;;1.00;1.00;;;;;14.09;95.57;99103.22;5015768;28;45413;-44
2023/10/26 06:41:05;;;;;;;;;1.67;1.00;;;;;14.08;94.20;99121.09;5015190;28;45400;-41
2023/10/26 06:43:30;;;;;;;;;2.33;1.00;;;;;14.08;94.21;99110.41;5015661;28;45301;-43
2023/10/26 06:45:56;;;;;;;;;2.33;2.00;;;;;14.09;93.27;99108.56;5015561;28;45408;-42
2023/10/26 06:48:21;;;;;;;;;1.67;1.00;;;;;14.09;93.14;99100.53;5015955;28;45295;-41
2023/10/26 06:50:47;;;;;;;;;2.00;0.00;;;;;14.06;93.06;99104.44;5015098;28;45408;-40
2023/10/26 06:53:13;;;;;;;;;1.00;1.00;;;;;14.07;92.34;99123.97;5015081;28;45647;-41
2023/10/26 06:55:38;;;;;;;;;2.00;1.00;;;;;14.07;92.46;99148.84;5015394;28;45511;-41
2023/10/26 06:58:04;;;;;;;;;5.00;1.00;;;;;14.06;92.31;99147.22;5016832;28;45545;-41
2023/10/26 07:00:30;;;;;;;;;4.00;1.33;;;;;14.02;91.56;99148.66;5018421;28;47110;-42
2023/10/26 07:02:55;;;;;;;;;5.00;1.33;;;;;14.05;91.87;99156.28;5018499;28;45456;-41
2023/10/26 07:05:20;;;;;;;;;4.00;2.00;;;;;14.05;91.17;99142.91;5030227;28;45270;-42
2023/10/26 07:07:46;;;;;;;;;1.67;1.67;;;;;14.10;90.98;99148.44;5039038;28;45447;-43
2023/10/26 07:10:15;;;;;;;;;8.33;3.00;;;;;14.12;89.85;99151.75;5038576;28;46146;-41
2023/10/26 07:12:41;;;;;;;;;8.33;3.00;;;;;14.16;89.70;99152.16;5038460;28;45300;-40
2023/10/26 07:15:07;;;;;;;;;7.00;3.00;;;;;14.19;89.13;99151.72;5038295;28;45373;-42
2023/10/26 07:17:34;;;;;;;;;4.00;2.00;;;;;14.22;89.54;99168.19;5038738;28;45230;-42
2023/10/26 07:20:00;;;;;;;;;3.00;1.33;;;;;14.23;88.69;99172.47;5038204;28;46155;-40
2023/10/26 07:22:25;;;;;;;;;4.00;1.00;;;;;14.25;87.71;99188.34;5038388;28;45353;-40
2023/10/26 07:24:51;;;;;;;;;4.00;2.33;;;;;14.25;87.42;99199.03;5038054;28;45325;-38
2023/10/26 07:27:16;;;;;;;;;2.67;1.67;;;;;14.28;86.86;99187.09;5038677;28;45882;-40
2023/10/26 07:29:41;;;;;;;;;4.00;3.00;;;;;14.25;86.86;99191.03;5037958;28;45493;-41
2023/10/26 07:32:07;;;;;;;;;3.33;2.67;;;;;14.31;86.58;99195.53;5037974;28;50033;-39
2023/10/26 07:34:32;;;;;;;;;5.00;2.00;;;;;14.35;86.54;99215.47;5038248;28;45443;-44
2023/10/26 07:36:58;;;;;;;;;4.00;2.67;;;;;14.38;86.52;99219.59;5038337;28;45482;-42
2023/10/26 07:39:23;;;;;;;;;4.00;3.00;;;;;14.38;85.96;99222.28;5038361;28;46302;-41
2023/10/26 07:41:48;;;;;;;;;4.00;2.00;;;;;14.41;85.54;99219.16;5037295;28;45299;-40
2023/10/26 07:44:14;;;;;;;;;6.67;3.00;;;;;14.38;85.96;99206.22;5038174;28;45312;-40
2023/10/26 07:46:39;;;;;;;;;5.00;2.00;;;;;14.39;85.22;99230.06;5038091;28;45511;-40
2023/10/26 07:49:05;;;;;;;;;6.33;2.00;;;;;14.44;84.88;99229.44;5037779;28;45873;-40
2023/10/26 07:51:30;;;;;;;;;8.67;2.33;;;;;14.47;85.60;99227.19;5037581;28;45342;-39
2023/10/26 07:53:55;;;;;;;;;3.00;0.33;;;;;14.48;84.30;99246.72;5020144;28;45901;-40
2023/10/26 07:56:21;;;;;;;;;5.67;3.33;;;;;14.46;84.20;99238.09;5038258;28;45266;-38
2023/10/26 07:58:46;;;;;;;;;7.00;3.00;;;;;14.45;83.26;99241.78;5037027;28;46093;-40
2023/10/26 08:01:12;;;;;;;;;7.33;3.00;;;;;14.45;83.56;99239.97;5037528;28;45493;-40
2023/10/26 08:03:38;;;;;;;;;10.00;4.00;;;;;14.49;83.56;99243.06;5037868;28;45394;-41
2023/10/26 08:06:04;;;;;;;;;5.00;3.00;;;;;14.55;83.38;99262.81;5037684;28;45380;-39
2023/10/26 08:08:30;;;;;;;;;8.67;3.00;;;;;14.60;83.28;99246.97;5036203;28;46308;-41
2023/10/26 08:10:56;;;;;;;;;4.67;1.00;;;;;14.75;82.58;99241.34;5037537;28;45424;-40
2023/10/26 08:13:21;;;;;;;;;5.67;1.67;;;;;14.86;82.26;99264.78;5037751;28;46634;-40
2023/10/26 08:15:47;;;;;;;;;8.00;1.33;;;;;14.98;81.27;99258.56;5037754;28;45452;-40
2023/10/26 08:18:13;;;;;;;;;4.00;2.00;;;;;15.07;80.46;99267.19;5037422;28;45973;-42
2023/10/26 08:20:39;;;;;;;;;5.00;3.33;;;;;15.11;80.39;99268.41;5019615;28;45475;-41
2023/10/26 08:23:04;;;;;;;;;9.33;3.00;;;;;15.13;79.55;99279.75;5036865;28;45255;-41
2023/10/26 08:25:29;;;;;;;;;3.00;2.00;;;;;15.13;79.09;99284.28;5037380;28;45491;-40
2023/10/26 08:27:55;;;;;;;;;5.67;2.67;;;;;15.15;79.17;99280.34;5037469;28;45940;-41
2023/10/26 08:30:20;;;;;;;;;4.33;1.00;;;;;15.16;79.38;99275.81;5037154;28;48562;-36
2023/10/26 08:32:48;;;;;;;;;3.00;2.00;;;;;15.19;79.09;99276.22;5037582;28;45194;-39
2023/10/26 08:35:13;;;;;;;;;4.00;1.67;;;;;15.19;78.67;99270.84;5037311;28;45443;-39
2023/10/26 08:37:39;;;;;;;;;8.33;3.00;;;;;15.23;78.42;99263.22;5036841;28;46085;-42
2023/10/26 08:40:11;;;;;;;;;3.67;3.00;;;;;15.30;78.11;99279.28;5037275;28;46498;-42
2023/10/26 08:42:38;;;;;;;;;2.00;1.00;;;;;15.33;78.40;99290.38;5037205;28;45241;-40
2023/10/26 08:45:11;;;;;;;;;4.00;1.00;;;;;15.29;77.49;99270.38;5037000;28;45344;-41
2023/10/26 08:47:36;;;;;;;;;2.33;2.00;;;;;15.31;77.71;99272.88;5037207;28;45545;-40
2023/10/26 08:50:02;;;;;;;;;2.00;1.33;;;;;15.29;77.64;99285.66;5036820;28;45462;-42
2023/10/26 08:52:28;;;;;;;;;3.00;3.00;;;;;15.29;77.28;99286.47;5037117;28;46362;-42
2023/10/26 08:54:53;;;;;;;;;2.00;2.00;;;;;15.31;77.13;99288.94;5037249;28;45384;-41
2023/10/26 08:57:18;;;;;;;;;6.67;3.00;;;;;15.27;77.20;99290.41;5036707;28;45463;-39
2023/10/26 08:59:43;;;;;;;;;5.00;1.67;;;;;15.30;77.33;99290.81;5036911;28;46364;-41
2023/10/26 09:02:09;;;;;;;;;2.33;2.00;;;;;15.31;77.58;99305.03;5036714;28;45403;-40
2023/10/26 09:04:34;;;;;;;;;2.67;2.00;;;;;15.31;77.48;99300.50;5035964;28;45286;-42
2023/10/26 09:07:00;;;;;;;;;2.67;2.33;;;;;15.33;77.50;99310.97;5036494;28;45328;-42
2023/10/26 09:09:25;;;;;;;;;5.67;2.00;;;;;15.31;77.70;99299.66;5036738;28;45558;-42
2023/10/26 09:11:50;;;;;;;;;5.00;2.00;;;;;15.32;77.81;99296.75;5036832;28;45346;-41
2023/10/26 09:14:21;;;;;;;;;7.67;1.33;;;;;15.23;78.06;99284.66;5036683;28;45544;-42
2023/10/26 09:16:48;;;;;;;;;2.33;2.00;;;;;15.31;77.42;99302.34;5036272;28;45381;-41
2023/10/26 09:19:16;;;;;;;;;2.00;1.00;;;;;15.32;77.71;99303.97;5036408;28;45436;-42
2023/10/26 09:21:56;;;;;;;;;2.67;2.00;;;;;15.30;77.79;99306.88;5035953;28;45385;-38
2023/10/26 09:24:26;;;;;;;;;2.00;2.00;;;;;15.27;77.73;99299.28;5035902;28;45542;-42
2023/10/26 09:27:00;;;;;;;;;6.00;2.67;;;;;15.31;78.05;99313.88;5036183;28;47027;-39
2023/10/26 09:29:39;;;;;;;;;3.00;3.00;;;;;15.33;77.82;99317.16;5036454;28;45456;-40
2023/10/26 09:32:05;;;;;;;;;5.33;2.00;;;;;15.38;77.55;99322.72;5036131;28;45363;-40
2023/10/26 09:34:37;;;;;;;;;7.33;1.67;;;;;15.39;77.95;99323.53;5036170;28;45404;-40
2023/10/26 09:37:04;;;;;;;;;4.33;1.00;;;;;15.39;77.99;99312.81;5036019;28;47239;-42
2023/10/26 09:39:32;;;;;;;;;3.67;3.00;;;;;15.32;77.47;99301.31;5036190;28;45350;-40
2023/10/26 09:42:00;;;;;;;;;10.67;3.00;;;;;15.44;77.50;99321.88;5036284;28;45431;-41
2023/10/26 09:44:26;;;;;;;;;4.67;2.00;;;;;15.50;77.67;99330.06;5036509;28;45437;-43
2023/10/26 09:46:52;;;;;;;;;5.00;2.00;;;;;15.57;77.62;99330.88;5018071;28;45423;-41
2023/10/26 09:49:17;;;;;;;;;3.33;3.00;;;;;15.66;77.10;99327.75;5036467;28;45506;-38
2023/10/26 09:51:44;;;;;;;;;2.67;2.00;;;;;15.74;76.19;99339.28;5036746;28;45415;-39
2023/10/26 09:54:10;;;;;;;;;1.00;1.00;;;;;15.79;75.84;99334.91;5018612;28;45413;-41
2023/10/26 09:56:39;;;;;;;;;4.67;2.67;;;;;15.95;75.50;99336.25;5036565;28;45412;-38
2023/10/26 09:59:05;;;;;;;;;2.00;2.00;;;;;16.13;74.29;99335.53;5036025;28;45336;-40
2023/10/26 10:01:32;;;;;;;;;2.33;2.33;;;;;16.32;73.59;99314.97;5036065;28;45481;-41
2023/10/26 10:03:58;;;;;;;;;2.67;2.00;;;;;16.54;72.83;99310.84;5036287;28;45357;-41
2023/10/26 10:06:51;;;;;;;;;3.33;3.00;;;;;16.78;72.37;99290.41;5035670;28;45420;-41
2023/10/26 10:09:21;;;;;;;;;9.00;2.33;;;;;16.88;71.03;99284.50;5035867;28;45471;-42
2023/10/26 10:12:40;;;;;;;;;10.25;3.00;;;;;17.01;70.74;99295.09;5036031;28;45316;-41
2023/10/26 10:15:07;;;;;;;;;3.00;3.00;;;;;17.15;69.50;99290.41;4973653;28;45279;-40
2023/10/26 10:17:44;;;;;;;;;8.50;2.00;;;;;17.40;68.93;99298.34;4972872;28;46126;-42
2023/10/26 10:20:18;;;;;;;;;2.75;2.00;;;;;17.64;67.10;99292.03;4974113;28;45472;-42
2023/10/26 10:22:44;;;;;;;;;2.75;1.50;;;;;17.81;66.79;99288.75;4973987;28;45409;-41
2023/10/26 10:25:10;;;;;;;;;1.00;1.00;;;;;17.87;66.71;99293.22;4974373;28;45347;-40
2023/10/26 10:27:47;;;;;;;;;2.25;1.50;;;;;17.83;65.80;99306.31;4973602;28;46097;-41
2023/10/26 10:30:13;;;;;;;;;7.00;3.00;;;;;17.94;65.93;99316.25;4973911;28;45394;-40
2023/10/26 10:32:44;;;;;;;;;5.75;2.75;;;;;18.02;65.94;99314.31;4974212;28;45387;-40
2023/10/26 10:35:21;;;;;;;;;7.50;3.00;;;;;18.11;65.27;99319.13;4977625;28;45461;-42
2023/10/26 10:38:18;;;;;;;;;3.00;3.00;;;;;18.25;65.57;99317.06;4977107;28;46218;-40
2023/10/26 10:40:53;;;;;;;;;3.75;2.75;;;;;18.33;65.22;99314.03;4977148;28;45374;-39
2023/10/26 10:43:30;;;;;;;;;4.25;2.75;;;;;18.27;64.61;99317.63;4976968;28;45349;-40
2023/10/26 10:45:55;;;;;;;;;3.00;3.00;;;;;18.32;66.04;99330.41;4977495;28;45453;-46
2023/10/26 10:48:20;;;;;;;;;2.50;2.50;;;;;18.33;64.46;99326.66;4975605;28;46418;-40
2023/10/26 10:50:50;;;;;;;;;3.00;2.00;;;;;18.33;64.92;99324.81;5018397;28;45417;-42
2023/10/26 10:53:16;;;;;;;;;4.25;3.25;;;;;18.36;64.27;99331.56;5038926;28;45321;-41
2023/10/26 10:55:43;;;;;;;;;6.00;4.00;;;;;18.29;64.81;99331.69;5039019;28;45258;-40
2023/10/26 10:58:09;;;;;;;;;9.25;3.25;;;;;18.17;64.87;99328.97;5038759;28;46198;-43
2023/10/26 11:00:40;;;;;;;;;4.75;1.50;;;;;18.09;63.48;99323.91;5038395;28;45296;-43
2023/10/26 11:03:05;;;;;;;;;4.25;2.25;;;;;18.00;63.88;99322.63;5038638;28;45286;-41
2023/10/26 11:05:39;;;;;;;;;5.50;2.50;;;;;17.91;64.95;99318.63;5038776;28;45288;-42
2023/10/26 11:08:06;;;;;;;;;6.00;3.00;;;;;17.86;64.60;99311.22;5038525;28;46321;-41
2023/10/26 11:10:31;;;;;;;;;2.25;1.50;;;;;17.82;64.52;99295.75;5038794;28;45601;-41
2023/10/26 11:12:57;;;;;;;;;2.00;2.00;;;;;17.87;64.00;99312.88;5038530;28;45217;-41
2023/10/26 11:15:38;;;;;;;;;4.00;2.00;;;;;17.73;65.32;99297.09;5038839;28;45447;-43
2023/10/26 11:18:06;;;;;;;;;6.00;4.50;;;;;17.77;64.64;99314.47;5038506;28;45437;-40
2023/10/26 11:20:40;;;;;;;;;4.75;2.00;;;;;17.52;64.77;99287.66;5038399;28;45357;-42
2023/10/26 11:23:07;;;;;;;;;3.75;1.75;;;;;17.59;64.97;99307.22;5020459;28;45407;-41
2023/10/26 11:25:32;;;;;;;;;1.75;1.25;;;;;17.51;64.90;99300.28;5020700;28;45344;-41
2023/10/26 11:27:58;;;;;;;;;4.00;1.25;;;;;17.46;65.46;99303.66;5038094;28;45359;-43